Terminal Aerodrome Forecast
Issued by NWS

Home | Current Version | Previous Version | Text Only | Print | Product List | Glossary On
Versions: 1 2 3 4 5 6 7 8 9 10
689
FTUS46 KSTO 230536
TAFSCK
TAF
KSCK 230536Z 2306/2406 25007KT P6SM SKC
     FM231000 28008KT P6SM OVC200
     FM232000 30011KT P6SM SCT040 SCT250=

USA.gov is the U.S. government's official web portal to all federal, state and local government web resources and services.